Mount Jackson, Virginia
Current Conditions -  °F | °C
As of 5:35 AM on Wednesday 22 Oct 2014 (Local Time) from K8W2 Reporting Station
Overcast Overcast  
Wind Chill: 48°   Ceiling: 2700
Heat Index: 48°   Visibility: 10mi
Dew Point: 47°   Wind: 0mph
Humidity: 95%   Direction: NA
Pressure: 29.95"   Gusts: NA
Location:  38.75°N, 78.64°W
Report Text: K8W2 220935Z AUTO 00000KT 10SM BKN027 BKN035 OVC040 09/08 A2995 RMK AO1 P0003 T00900082
Loading
Personal Weather Stations






























Interactive Weather Map New forecast layout! Learn more

10-Day Weather Forecast

Advertisements
Track Severe Weather on mobile